createdAt,value
2023-01-12T00:01:53.906Z,6.28
2023-01-12T00:04:21.013Z,6.27
2023-01-12T00:06:48.387Z,6.33
2023-01-12T00:09:15.354Z,6.39
2023-01-12T00:11:42.255Z,6.42
2023-01-12T00:14:09.934Z,6.45
2023-01-12T00:16:46.642Z,6.45
2023-01-12T00:19:18.562Z,6.47
2023-01-12T00:22:07.886Z,6.49
2023-01-12T00:24:39.193Z,6.50
2023-01-12T00:27:08.520Z,6.54
2023-01-12T00:29:36.538Z,6.51
2023-01-12T00:32:04.488Z,6.52
2023-01-12T00:34:31.297Z,6.54
2023-01-12T00:37:00.042Z,6.55
2023-01-12T00:39:26.849Z,6.58
2023-01-12T00:42:12.199Z,6.60
2023-01-12T00:44:57.985Z,6.57
2023-01-12T00:47:24.908Z,6.57
2023-01-12T00:49:51.740Z,6.59
2023-01-12T00:52:30.403Z,6.59
2023-01-12T00:54:58.617Z,6.58
2023-01-12T00:57:25.424Z,6.57
2023-01-12T00:59:55.315Z,6.56
2023-01-12T01:02:23.225Z,6.57
2023-01-12T01:04:50.718Z,6.59
2023-01-12T01:07:18.559Z,6.63
2023-01-12T01:09:45.611Z,6.68
2023-01-12T01:12:12.380Z,6.72
2023-01-12T01:14:39.378Z,6.72
2023-01-12T01:17:06.429Z,6.74
2023-01-12T01:19:33.305Z,6.77
2023-01-12T01:22:00.171Z,6.74
2023-01-12T01:24:27.708Z,6.75
2023-01-12T01:26:54.489Z,6.78
2023-01-12T01:29:21.287Z,6.79
2023-01-12T01:31:48.175Z,6.83
2023-01-12T01:34:15.365Z,6.84
2023-01-12T01:36:42.897Z,6.83
2023-01-12T01:39:09.785Z,6.81
2023-01-12T01:41:36.544Z,6.80
2023-01-12T01:44:06.278Z,6.77
2023-01-12T01:46:38.902Z,6.78
2023-01-12T01:49:25.383Z,6.70
2023-01-12T01:51:54.946Z,6.76
2023-01-12T01:54:22.558Z,6.80
2023-01-12T01:56:51.545Z,6.81
2023-01-12T01:59:23.117Z,6.80
2023-01-12T02:01:50.652Z,6.82
2023-01-12T02:04:17.745Z,6.85
2023-01-12T02:06:44.558Z,6.90
2023-01-12T02:09:19.592Z,6.88
2023-01-12T02:12:05.732Z,6.93
2023-01-12T02:14:52.285Z,6.88
2023-01-12T02:17:40.982Z,6.80
2023-01-12T02:20:55.673Z,6.71
2023-01-12T02:23:40.655Z,6.71
2023-01-12T02:26:19.407Z,6.77
2023-01-12T02:28:49.141Z,6.73
2023-01-12T02:31:44.186Z,6.64
2023-01-12T02:34:28.606Z,6.59
2023-01-12T02:37:07.564Z,6.50
2023-01-12T02:39:41.578Z,6.51
2023-01-12T02:42:51.651Z,6.41
2023-01-12T02:45:33.771Z,6.42
2023-01-12T02:48:15.886Z,6.39
2023-01-12T02:51:21.156Z,6.24
2023-01-12T02:53:55.319Z,6.28
2023-01-12T02:56:30.048Z,6.31
2023-01-12T02:58:59.368Z,6.35
2023-01-12T03:01:29.168Z,6.39
2023-01-12T03:04:01.306Z,6.35
2023-01-12T03:06:43.752Z,6.28
2023-01-12T03:09:12.025Z,6.29
2023-01-12T03:11:42.993Z,6.29
2023-01-12T03:14:11.114Z,6.28
2023-01-12T03:16:40.341Z,6.29
2023-01-12T03:19:16.816Z,6.18
2023-01-12T03:21:53.643Z,6.15
2023-01-12T03:24:27.740Z,6.08
2023-01-12T03:27:01.943Z,6.03
2023-01-12T03:29:31.770Z,6.01
2023-01-12T03:31:59.415Z,5.99
2023-01-12T03:34:26.932Z,5.97
2023-01-12T03:37:10.897Z,5.91
2023-01-12T03:40:08.302Z,5.80
2023-01-12T03:42:56.555Z,5.83
2023-01-12T03:45:31.639Z,5.85
2023-01-12T03:48:06.108Z,5.83
2023-01-12T03:50:59.510Z,5.84
2023-01-12T03:53:28.278Z,5.89
2023-01-12T03:55:59.577Z,5.85
2023-01-12T03:58:26.463Z,5.80
2023-01-12T04:00:53.382Z,5.71
2023-01-12T04:03:20.368Z,5.73
2023-01-12T04:05:47.331Z,5.71
2023-01-12T04:08:16.208Z,5.71
2023-01-12T04:10:43.533Z,5.79
2023-01-12T04:13:10.379Z,5.89
2023-01-12T04:15:42.253Z,5.96
2023-01-12T04:18:12.831Z,5.99
2023-01-12T04:20:40.021Z,6.06
2023-01-12T04:23:07.510Z,6.10
2023-01-12T04:25:35.198Z,6.10
2023-01-12T04:28:05.107Z,6.11
2023-01-12T04:30:33.530Z,6.10
2023-01-12T04:33:05.965Z,6.08
2023-01-12T04:35:32.853Z,6.04
2023-01-12T04:38:04.779Z,5.97
2023-01-12T04:40:31.564Z,5.98
2023-01-12T04:43:01.335Z,5.98
2023-01-12T04:45:40.379Z,5.86
2023-01-12T04:48:10.691Z,5.87
2023-01-12T04:50:38.845Z,5.87
2023-01-12T04:53:10.734Z,5.79
2023-01-12T04:55:39.838Z,5.82
2023-01-12T04:58:06.673Z,5.84
2023-01-12T05:00:33.695Z,5.82
2023-01-12T05:03:02.481Z,5.79
2023-01-12T05:05:32.159Z,5.72
2023-01-12T05:08:21.554Z,5.67
2023-01-12T05:10:57.005Z,5.62
2023-01-12T05:13:26.253Z,5.55
2023-01-12T05:15:53.008Z,5.53
2023-01-12T05:18:20.557Z,5.56
2023-01-12T05:20:47.398Z,5.57
2023-01-12T05:23:14.245Z,5.57
2023-01-12T05:25:41.027Z,5.52
2023-01-12T05:28:08.954Z,5.47
2023-01-12T05:30:35.797Z,5.46
2023-01-12T05:33:02.605Z,5.40
2023-01-12T05:35:29.401Z,5.41
2023-01-12T05:37:57.477Z,5.45
2023-01-12T05:40:24.867Z,5.46
2023-01-12T05:43:10.812Z,5.46
2023-01-12T05:45:37.661Z,5.55
2023-01-12T05:48:05.111Z,5.66
2023-01-12T05:50:32.078Z,5.77
2023-01-12T05:53:08.887Z,5.84
2023-01-12T05:55:38.094Z,5.91
2023-01-12T05:58:04.946Z,5.96
2023-01-12T06:00:32.116Z,6.05
2023-01-12T06:02:59.388Z,6.10
2023-01-12T06:05:26.335Z,6.18
2023-01-12T06:07:53.163Z,6.23
2023-01-12T06:10:20.124Z,6.23
2023-01-12T06:13:08.650Z,6.18
2023-01-12T06:15:35.479Z,6.12
2023-01-12T06:18:02.316Z,6.12
2023-01-12T06:20:29.151Z,6.16
2023-01-12T06:22:55.905Z,6.23
2023-01-12T06:25:22.710Z,6.27
2023-01-12T06:27:49.531Z,6.29
2023-01-12T06:30:16.378Z,6.32
2023-01-12T06:32:43.361Z,6.35
2023-01-12T06:35:18.702Z,6.30
2023-01-12T06:37:48.867Z,6.32
2023-01-12T06:40:15.746Z,6.36
2023-01-12T06:42:42.582Z,6.39
2023-01-12T06:45:10.527Z,6.45
2023-01-12T06:47:48.814Z,6.42
2023-01-12T06:50:16.246Z,6.47
2023-01-12T06:52:43.084Z,6.53
2023-01-12T06:55:09.959Z,6.55
2023-01-12T06:57:36.797Z,6.53
2023-01-12T07:00:04.742Z,6.52
2023-01-12T07:02:32.127Z,6.53
2023-01-12T07:04:58.867Z,6.58
2023-01-12T07:07:25.715Z,6.61
2023-01-12T07:09:52.496Z,6.64
2023-01-12T07:12:19.278Z,6.62
2023-01-12T07:14:46.101Z,6.64
2023-01-12T07:17:12.910Z,6.68
2023-01-12T07:19:41.452Z,6.79
2023-01-12T07:22:08.530Z,6.85
2023-01-12T07:24:35.731Z,6.90
2023-01-12T07:27:02.588Z,6.97
2023-01-12T07:29:29.610Z,7.05
2023-01-12T07:31:56.639Z,7.10
2023-01-12T07:34:23.543Z,7.18
2023-01-12T07:36:52.334Z,7.24
2023-01-12T07:39:19.624Z,7.30
2023-01-12T07:42:05.270Z,7.34
2023-01-12T07:44:32.143Z,7.37
2023-01-12T07:47:00.254Z,7.38
2023-01-12T07:49:27.931Z,7.32
2023-01-12T07:51:55.979Z,7.27
2023-01-12T07:54:23.934Z,7.21
2023-01-12T07:56:50.785Z,7.19
2023-01-12T07:59:17.894Z,7.17
2023-01-12T08:01:44.789Z,7.10
2023-01-12T08:04:11.634Z,7.10
2023-01-12T08:06:38.537Z,7.00
2023-01-12T08:09:05.527Z,6.92
2023-01-12T08:11:32.360Z,6.88
2023-01-12T08:14:00.059Z,6.82
2023-01-12T08:16:33.516Z,6.74
2023-01-12T08:19:08.947Z,6.68
2023-01-12T08:21:46.027Z,6.67
2023-01-12T08:24:17.786Z,6.70
2023-01-12T08:26:47.062Z,6.78
2023-01-12T08:29:58.833Z,6.88
2023-01-12T08:32:29.527Z,7.21
2023-01-12T08:35:01.769Z,7.40
2023-01-12T08:37:32.694Z,7.55
2023-01-12T08:39:59.757Z,7.70
2023-01-12T08:42:31.708Z,7.90
2023-01-12T08:44:58.799Z,8.10
2023-01-12T08:47:28.226Z,8.34
2023-01-12T08:49:55.589Z,8.48
2023-01-12T08:52:22.810Z,8.50
2023-01-12T08:54:50.238Z,8.43
2023-01-12T08:57:19.279Z,8.24
2023-01-12T08:59:46.102Z,8.15
2023-01-12T09:02:14.387Z,8.00
2023-01-12T09:04:41.716Z,7.89
2023-01-12T09:07:09.866Z,7.82
2023-01-12T09:09:37.076Z,7.78
2023-01-12T09:12:04.174Z,7.76
2023-01-12T09:14:31.210Z,7.77
2023-01-12T09:16:58.666Z,7.78
2023-01-12T09:19:25.539Z,7.84
2023-01-12T09:21:52.356Z,7.88
2023-01-12T09:24:19.183Z,7.90
2023-01-12T09:26:47.125Z,7.90
2023-01-12T09:29:14.904Z,7.92
2023-01-12T09:31:44.811Z,7.94
2023-01-12T09:34:11.797Z,7.99
2023-01-12T09:36:40.161Z,8.03
2023-01-12T09:39:15.385Z,8.09
2023-01-12T09:42:06.575Z,8.14
2023-01-12T09:45:21.585Z,8.20
2023-01-12T09:48:02.231Z,8.24
2023-01-12T09:50:40.550Z,8.41
2023-01-12T09:53:18.620Z,8.55
2023-01-12T09:55:53.948Z,8.73
2023-01-12T09:58:32.358Z,8.84
2023-01-12T10:01:01.550Z,9.08
2023-01-12T10:03:35.869Z,9.23
2023-01-12T10:06:02.746Z,9.40
2023-01-12T10:08:33.891Z,9.55
2023-01-12T10:11:27.864Z,9.71
2023-01-12T10:14:24.513Z,9.83
2023-01-12T10:17:02.488Z,10.01
2023-01-12T10:19:59.679Z,10.14
2023-01-12T10:22:39.881Z,10.27
2023-01-12T10:25:21.596Z,10.36
2023-01-12T10:27:50.893Z,10.51
2023-01-12T10:30:28.510Z,10.55
2023-01-12T10:32:55.252Z,10.70
2023-01-12T10:35:24.200Z,10.77
2023-01-12T10:37:57.683Z,10.82
2023-01-12T10:40:33.421Z,10.88
2023-01-12T10:43:20.001Z,10.97
2023-01-12T10:46:10.040Z,10.97
2023-01-12T10:48:39.180Z,11.06
2023-01-12T10:51:08.657Z,11.07
2023-01-12T10:53:55.855Z,11.07
2023-01-12T10:56:44.033Z,11.11
2023-01-12T10:59:13.566Z,11.31
2023-01-12T11:02:06.940Z,11.21
2023-01-12T11:04:42.802Z,11.26
2023-01-12T11:07:12.879Z,11.22
2023-01-12T11:09:41.289Z,11.14
2023-01-12T11:12:20.207Z,11.20
2023-01-12T11:14:58.449Z,11.07
2023-01-12T11:17:49.608Z,11.07
2023-01-12T11:20:29.262Z,11.05
2023-01-12T11:22:59.523Z,11.01
2023-01-12T11:25:28.139Z,10.98
2023-01-12T11:28:24.073Z,11.03
2023-01-12T11:30:56.513Z,10.96
2023-01-12T11:33:55.239Z,10.85
2023-01-12T11:36:31.660Z,10.94
2023-01-12T11:39:08.538Z,10.97
2023-01-12T11:42:16.228Z,10.99
2023-01-12T11:44:53.176Z,11.03
2023-01-12T11:47:41.705Z,11.04
2023-01-12T11:50:17.219Z,11.06
2023-01-12T11:52:45.259Z,11.12
2023-01-12T11:55:22.927Z,11.15
2023-01-12T11:58:06.647Z,11.24
2023-01-12T12:00:59.148Z,11.19
2023-01-12T12:03:31.328Z,11.29
2023-01-12T12:06:18.377Z,11.33
2023-01-12T12:09:11.424Z,11.28
2023-01-12T12:11:55.850Z,11.25
2023-01-12T12:14:47.450Z,11.21
2023-01-12T12:17:49.651Z,11.20
2023-01-12T12:20:19.920Z,11.23
2023-01-12T12:23:02.264Z,11.27
2023-01-12T12:25:35.058Z,11.25
2023-01-12T12:28:07.744Z,11.30
2023-01-12T12:30:59.394Z,11.32
2023-01-12T12:34:00.310Z,11.30
2023-01-12T12:36:34.716Z,11.45
2023-01-12T12:39:21.437Z,11.47
2023-01-12T12:42:27.527Z,11.51
2023-01-12T12:45:19.028Z,11.68
2023-01-12T12:48:08.027Z,11.63
2023-01-12T12:50:50.269Z,11.73
2023-01-12T12:53:30.018Z,11.72
2023-01-12T12:56:07.277Z,11.78
2023-01-12T12:58:54.471Z,11.76
2023-01-12T13:01:21.446Z,11.83
2023-01-12T13:03:51.151Z,11.80
2023-01-12T13:06:36.182Z,11.76
2023-01-12T13:09:08.765Z,11.81
2023-01-12T13:11:53.727Z,11.72
2023-01-12T13:14:33.192Z,11.69
2023-01-12T13:17:19.998Z,11.70
2023-01-12T13:20:08.276Z,11.57
2023-01-12T13:22:50.067Z,11.63
2023-01-12T13:25:16.764Z,11.64
2023-01-12T13:28:01.581Z,11.55
2023-01-12T13:30:46.729Z,11.59
2023-01-12T13:33:23.913Z,11.62
2023-01-12T13:35:50.669Z,11.71
2023-01-12T13:38:39.049Z,11.69
2023-01-12T13:41:15.286Z,11.72
2023-01-12T13:43:52.673Z,11.80
2023-01-12T13:46:27.463Z,11.81
2023-01-12T13:48:56.365Z,11.86
2023-01-12T13:51:29.269Z,11.83
2023-01-12T13:54:09.992Z,11.81
2023-01-12T13:56:37.574Z,11.87
2023-01-12T13:59:07.817Z,11.86
2023-01-12T14:01:37.150Z,11.84
2023-01-12T14:04:20.421Z,11.83
2023-01-12T14:07:22.904Z,11.77
2023-01-12T14:10:22.028Z,11.70
2023-01-12T14:13:01.183Z,11.81
2023-01-12T14:16:00.949Z,11.73
2023-01-12T14:18:40.985Z,11.68
2023-01-12T14:21:26.893Z,11.52
2023-01-12T14:23:54.568Z,11.54
2023-01-12T14:26:24.244Z,11.47
2023-01-12T14:28:52.481Z,11.41
2023-01-12T14:31:24.995Z,11.31
2023-01-12T14:34:02.654Z,11.25
2023-01-12T14:36:41.250Z,11.16
2023-01-12T14:39:15.121Z,11.04
2023-01-12T14:42:09.039Z,10.98
2023-01-12T14:44:58.414Z,10.88
2023-01-12T14:47:33.852Z,10.78
2023-01-12T14:50:13.684Z,10.67
2023-01-12T14:52:43.168Z,10.67
2023-01-12T14:55:26.601Z,10.56
2023-01-12T14:57:59.861Z,10.53
2023-01-12T15:00:28.186Z,10.24
2023-01-12T15:03:01.714Z,10.40
2023-01-12T15:05:30.442Z,10.38
2023-01-12T15:07:59.211Z,10.38
2023-01-12T15:10:30.556Z,10.36
2023-01-12T15:13:19.091Z,10.35
2023-01-12T15:16:04.815Z,10.34
2023-01-12T15:18:52.612Z,10.33
2023-01-12T15:21:43.152Z,10.31
2023-01-12T15:24:34.596Z,10.21
2023-01-12T15:27:06.288Z,10.27
2023-01-12T15:29:33.453Z,10.24
2023-01-12T15:32:00.780Z,10.18
2023-01-12T15:34:28.067Z,10.20
2023-01-12T15:36:54.899Z,10.19
2023-01-12T15:39:21.753Z,10.19
2023-01-12T15:42:07.306Z,10.18
2023-01-12T15:44:34.065Z,10.18
2023-01-12T15:47:00.825Z,10.19
2023-01-12T15:49:27.700Z,10.21
2023-01-12T15:51:54.630Z,10.24
2023-01-12T15:54:22.016Z,10.28
2023-01-12T15:56:49.130Z,10.28
2023-01-12T15:59:16.614Z,10.24
2023-01-12T16:01:46.732Z,10.19
2023-01-12T16:04:42.075Z,10.16
2023-01-12T16:07:09.314Z,10.14
2023-01-12T16:09:36.270Z,10.13
2023-01-12T16:12:03.092Z,10.07
2023-01-12T16:14:29.867Z,10.04
2023-01-12T16:16:56.649Z,10.02
2023-01-12T16:19:23.664Z,9.97
2023-01-12T16:21:50.659Z,9.97
2023-01-12T16:24:17.459Z,9.95
2023-01-12T16:26:45.464Z,9.85
2023-01-12T16:29:12.439Z,9.87
2023-01-12T16:31:39.628Z,9.86
2023-01-12T16:34:06.626Z,9.86
2023-01-12T16:36:33.870Z,9.82
2023-01-12T16:39:00.715Z,9.81
2023-01-12T16:41:27.559Z,9.79
2023-01-12T16:43:57.725Z,9.74
2023-01-12T16:46:24.539Z,9.70
2023-01-12T16:48:52.593Z,9.67
2023-01-12T16:51:19.811Z,9.62
2023-01-12T16:53:47.508Z,9.56
2023-01-12T16:56:17.186Z,9.50
2023-01-12T16:58:48.700Z,9.42
2023-01-12T17:01:18.251Z,9.35
2023-01-12T17:03:45.432Z,9.30
2023-01-12T17:06:16.804Z,9.25
2023-01-12T17:08:43.879Z,9.23
2023-01-12T17:11:15.957Z,9.18
2023-01-12T17:13:43.200Z,9.18
2023-01-12T17:16:12.271Z,9.14
2023-01-12T17:18:39.801Z,9.16
2023-01-12T17:21:13.335Z,9.19
2023-01-12T17:23:41.977Z,9.27
2023-01-12T17:26:13.118Z,9.35
2023-01-12T17:28:40.888Z,9.38
2023-01-12T17:31:10.122Z,9.42
2023-01-12T17:33:37.770Z,9.42
2023-01-12T17:36:06.573Z,9.46
2023-01-12T17:38:34.895Z,9.48
2023-01-12T17:41:30.584Z,9.48
2023-01-12T17:43:57.846Z,9.54
2023-01-12T17:46:25.207Z,9.57
2023-01-12T17:48:52.154Z,9.60
2023-01-12T17:51:19.048Z,9.59
2023-01-12T17:53:45.968Z,9.56
2023-01-12T17:56:13.890Z,9.55
2023-01-12T17:58:43.895Z,9.56
2023-01-12T18:01:14.282Z,9.58
2023-01-12T18:03:41.174Z,9.64
2023-01-12T18:06:12.100Z,9.65
2023-01-12T18:08:45.837Z,9.65
2023-01-12T18:11:12.894Z,9.59
2023-01-12T18:13:41.445Z,9.54
2023-01-12T18:16:10.747Z,9.49
2023-01-12T18:18:40.127Z,9.46
2023-01-12T18:21:09.268Z,9.45
2023-01-12T18:23:38.756Z,9.40
2023-01-12T18:26:11.835Z,9.28
2023-01-12T18:28:38.763Z,9.22
2023-01-12T18:31:28.643Z,9.05
2023-01-12T18:34:06.273Z,9.02
2023-01-12T18:36:35.367Z,8.95
2023-01-12T18:39:02.646Z,8.91
2023-01-12T18:41:47.969Z,8.82
2023-01-12T18:44:14.795Z,8.68
2023-01-12T18:47:02.239Z,8.63
2023-01-12T18:49:34.177Z,8.54
2023-01-12T18:52:20.763Z,8.49
2023-01-12T18:54:48.321Z,8.46
2023-01-12T18:57:19.203Z,8.46
2023-01-12T18:59:46.673Z,8.46
2023-01-12T19:02:14.813Z,8.47
2023-01-12T19:04:51.056Z,8.46
2023-01-12T19:07:46.061Z,8.47
2023-01-12T19:10:12.790Z,8.51
2023-01-12T19:12:40.359Z,8.56
2023-01-12T19:15:27.791Z,8.58
2023-01-12T19:17:54.525Z,8.59
2023-01-12T19:20:21.323Z,8.60
2023-01-12T19:23:06.595Z,8.63
2023-01-12T19:25:51.598Z,8.63
2023-01-12T19:28:38.128Z,8.64
2023-01-12T19:31:12.210Z,8.61
2023-01-12T19:33:39.710Z,8.59
2023-01-12T19:36:09.133Z,8.64
2023-01-12T19:38:36.353Z,8.68
2023-01-12T19:41:14.513Z,8.67
2023-01-12T19:43:45.397Z,8.71
2023-01-12T19:46:15.700Z,8.73
2023-01-12T19:48:42.518Z,8.73
2023-01-12T19:51:11.352Z,8.71
2023-01-12T19:53:40.205Z,8.70
2023-01-12T19:56:14.597Z,8.68
2023-01-12T19:58:42.296Z,8.72
2023-01-12T20:01:09.333Z,8.73
2023-01-12T20:03:36.359Z,8.74
2023-01-12T20:06:07.604Z,8.71
2023-01-12T20:08:34.356Z,8.71
2023-01-12T20:11:04.798Z,8.67
2023-01-12T20:13:32.773Z,8.64
2023-01-12T20:15:59.853Z,8.65
2023-01-12T20:18:29.263Z,8.64
2023-01-12T20:20:59.051Z,8.58
2023-01-12T20:23:25.950Z,8.58
2023-01-12T20:25:53.047Z,8.54
2023-01-12T20:28:20.107Z,8.51
2023-01-12T20:30:46.985Z,8.51
2023-01-12T20:33:14.015Z,8.50
2023-01-12T20:35:46.416Z,8.44
2023-01-12T20:38:15.813Z,8.40
2023-01-12T20:40:43.657Z,8.36
2023-01-12T20:43:10.631Z,8.28
2023-01-12T20:45:37.499Z,8.20
2023-01-12T20:48:04.655Z,8.12
2023-01-12T20:50:31.439Z,8.04
2023-01-12T20:52:58.320Z,7.98
2023-01-12T20:55:25.467Z,7.94
2023-01-12T20:57:52.887Z,7.92
2023-01-12T21:00:19.945Z,7.92
2023-01-12T21:02:46.867Z,7.91
2023-01-12T21:05:13.594Z,7.92
2023-01-12T21:07:40.388Z,7.94
2023-01-12T21:10:09.116Z,7.96
2023-01-12T21:12:36.319Z,7.96
2023-01-12T21:15:03.950Z,8.02
2023-01-12T21:17:31.744Z,7.97
2023-01-12T21:19:58.615Z,7.94
2023-01-12T21:22:25.406Z,7.92
2023-01-12T21:24:52.114Z,7.89
2023-01-12T21:27:19.009Z,7.85
2023-01-12T21:29:46.085Z,7.84
2023-01-12T21:32:13.105Z,7.83
2023-01-12T21:34:39.878Z,7.77
2023-01-12T21:37:07.759Z,7.73
2023-01-12T21:39:34.697Z,7.71
2023-01-12T21:42:20.045Z,7.66
2023-01-12T21:44:46.844Z,7.61
2023-01-12T21:47:13.616Z,7.65
2023-01-12T21:49:40.361Z,7.69
2023-01-12T21:52:07.914Z,7.70
2023-01-12T21:54:34.997Z,7.73
2023-01-12T21:57:01.729Z,7.72
2023-01-12T21:59:28.657Z,7.59
2023-01-12T22:01:55.603Z,7.49
2023-01-12T22:04:22.580Z,7.47
2023-01-12T22:06:52.611Z,7.45
2023-01-12T22:09:19.810Z,7.51
2023-01-12T22:11:46.680Z,7.56
2023-01-12T22:14:13.628Z,7.53
2023-01-12T22:16:40.500Z,7.58
2023-01-12T22:19:07.285Z,7.52
2023-01-12T22:21:34.294Z,7.51
2023-01-12T22:24:01.068Z,7.54
2023-01-12T22:26:29.850Z,7.58
2023-01-12T22:28:56.753Z,7.51
2023-01-12T22:31:24.976Z,7.50
2023-01-12T22:33:57.621Z,7.43
2023-01-12T22:36:24.639Z,7.32
2023-01-12T22:38:51.561Z,7.26
2023-01-12T22:41:21.862Z,7.24
2023-01-12T22:43:52.533Z,7.18
2023-01-12T22:46:22.269Z,7.11
2023-01-12T22:48:53.083Z,7.06
2023-01-12T22:51:21.037Z,7.00
2023-01-12T22:53:48.494Z,6.93
2023-01-12T22:56:15.314Z,6.91
2023-01-12T22:58:47.758Z,6.85
2023-01-12T23:01:15.854Z,6.80
2023-01-12T23:03:45.165Z,6.76
2023-01-12T23:06:14.726Z,6.70
2023-01-12T23:08:42.276Z,6.65
2023-01-12T23:11:14.910Z,6.56
2023-01-12T23:13:43.798Z,6.51
2023-01-12T23:16:12.098Z,6.47
2023-01-12T23:18:40.807Z,6.47
2023-01-12T23:21:14.269Z,6.46
2023-01-12T23:23:46.143Z,6.45
2023-01-12T23:26:15.274Z,6.38
2023-01-12T23:28:50.095Z,6.29
2023-01-12T23:31:22.287Z,6.23
2023-01-12T23:33:49.747Z,6.25
2023-01-12T23:36:24.914Z,6.26
2023-01-12T23:38:55.850Z,6.25
2023-01-12T23:41:25.237Z,6.32
2023-01-12T23:43:53.290Z,6.43
2023-01-12T23:46:22.578Z,6.49
2023-01-12T23:48:50.568Z,6.56
2023-01-12T23:51:17.519Z,6.63
2023-01-12T23:53:45.341Z,6.69
2023-01-12T23:56:15.509Z,6.65
2023-01-12T23:58:43.307Z,6.64
